KALS/ALS METAR and TAF weather

Enter ICAO airport designator
Station Type Date Time Source
KALS METAR 2019/04/25 01:52 UTC NOAA

KALS 250152Z AUTO 02021G30KT 10SM BKN080 OVC100 14/M03 A3004 RMK AO2 PK WND 02030/0152 SLP118 T01441033


Station Type Date Time Source
KALS Decoded METAR 2019/04/25 01:52 UTC NOAA

SAN LUIS VALLEY REGIONAL, CO, United States (KALS) 37-26N 105-52W 2299M
Apr 24, 2019 - 09:52 PM EDT / 2019.04.25 0152 UTC
Wind: from the NNE (020 degrees) at 24 MPH (21 KT) gusting to 35 MPH (30 KT):0
Visibility: 10 mile(s):0
Sky conditions: overcast
Temperature: 57.9 F (14.4 C)
Dew Point: 26.1 F (-3.3 C)
Relative Humidity: 29%
Pressure (altimeter): 30.04 in. Hg (1017 hPa)
ob: KALS 250152Z AUTO 02021G30KT 10SM BKN080 OVC100 14/M03 A3004 RMK AO2 PK WND 02030/0152 SLP118 T01441033
cycle: 2

Station Type Date Time Source
KALS TAF 2019/04/24 22:59 UTC NOAA

TAF
AMD KALS 242159Z 2422/2518 34012KT P6SM SCT120
FM250300 VRB05KT P6SM BKN100

Example: see airport list